KFIT

Fitchburg Municipal Airport

Fitchburg, Massachusetts, USA
METAR KFIT 182222Z AUTO 29029G37KT 3/4SM +TSRA BR SQ BKN015 BKN032 OVC085 22/22 A2983 RMK AO2 PK WND 29037/2221 LTG DSNT ALQDS RAB2154 TSB09 PRESRR P0042 T02220222
Observed Flight Rules
Jun-18 @ 22:22 UTC (17 minutes ago) Instrument Flight Rules
Wind Visibility Clouds Conditions
290° at 29 knots
 Gusting to 37 knots
3/4 miles
  • Broken at 1,500' AGL
  • Broken at 3,200' AGL
  • Overcast at 8,500' AGL
  • Heavy Thunderstorm
  • Heavy Rain
  • Mist
  • Squalls
Temperatures Readings Precipitation
Current 22°C / 72°F
Dewpoint 22°C / 72°F
Humidity 100%
Altimeter 29.83" Hg
Pressure 1010 hPa
Elevation 103
Current Rain 0.42
METAR KFIT 182222Z AUTO 29029G37KT 3/4SM +TSRA BR SQ BKN015 BKN032 OVC085 22/22 A2983 RMK AO2 PK WND 29037/2221 LTG DSNT ALQDS RAB2154 TSB09 PRESRR P0042 T02220222
Observed Flight Rules
Jun-18 @ 22:22 UTC
(17 minutes ago)
LIFR
Wind Visibility
290° at 29 knots
 Gusting to 37 knots
3/4 miles
Clouds
  • Broken at 1,500' AGL
  • Broken at 3,200' AGL
  • Overcast at 8,500' AGL
Conditions
  • Heavy Thunderstorm
  • Heavy Rain
  • Mist
  • Squalls
Temperature Dewpoint
22°C / 72°F 22°C / 72°F
Humidity Altimeter Pressure
100% 29.83" Hg 1010 hPa
Current Rain
0.42